createdAt,value
2022-07-28T05:39:19.314Z,99.90
2022-07-28T05:44:21.265Z,99.90
2022-07-28T05:49:23.834Z,99.90
2022-07-28T05:54:27.041Z,99.90
2022-07-28T05:59:28.967Z,99.90
2022-07-28T06:04:31.464Z,99.90
2022-07-28T06:09:33.537Z,99.90
2022-07-28T06:14:35.464Z,99.90
2022-07-28T06:19:37.401Z,99.90
2022-07-28T06:24:39.327Z,99.90
2022-07-28T06:29:41.259Z,99.90
2022-07-28T06:34:45.995Z,99.90
2022-07-28T06:39:48.008Z,99.90
2022-07-28T06:44:58.944Z,99.90
2022-07-28T06:50:02.157Z,99.90
2022-07-28T06:55:07.932Z,99.90
2022-07-28T07:00:14.206Z,99.90
2022-07-28T07:05:16.532Z,99.90
2022-07-28T07:10:18.564Z,99.90
2022-07-28T07:15:20.581Z,99.90
2022-07-28T07:20:22.642Z,99.90
2022-07-28T07:25:24.581Z,99.90
2022-07-28T07:30:26.514Z,99.90
2022-07-28T07:35:28.510Z,99.90
2022-07-28T07:40:31.060Z,99.90
2022-07-28T07:45:34.436Z,99.90
2022-07-28T07:50:37.299Z,99.90
2022-07-28T07:55:39.407Z,99.90
2022-07-28T08:00:41.349Z,99.90
2022-07-28T08:05:43.626Z,99.90
2022-07-28T08:10:45.579Z,99.90
2022-07-28T08:15:47.717Z,99.90
2022-07-28T08:20:49.755Z,99.90
2022-07-28T08:25:51.695Z,99.90
2022-07-28T08:30:53.773Z,99.90
2022-07-28T08:35:55.860Z,99.90
2022-07-28T08:40:59.388Z,99.90
2022-07-28T08:46:04.792Z,99.90
2022-07-28T08:51:12.478Z,99.90
2022-07-28T08:56:16.150Z,99.90
2022-07-28T09:01:18.581Z,99.90
2022-07-28T09:06:21.944Z,99.90
2022-07-28T09:11:28.636Z,99.90
2022-07-28T09:16:31.296Z,99.90
2022-07-28T09:21:33.587Z,95.80
2022-07-28T09:26:35.565Z,98.00
2022-07-28T09:31:55.842Z,95.30
2022-07-28T09:36:59.615Z,92.20
2022-07-28T09:42:01.659Z,88.70
2022-07-28T09:47:28.293Z,83.30
2022-07-28T09:52:38.463Z,84.90
2022-07-28T09:57:42.671Z,88.30
2022-07-28T10:02:50.593Z,78.90
2022-07-28T10:07:52.732Z,74.80
2022-07-28T10:13:06.219Z,71.70
2022-07-28T10:18:08.283Z,72.10
2022-07-28T10:23:13.912Z,73.00
2022-07-28T10:28:20.419Z,66.00
2022-07-28T10:33:24.731Z,66.20
2022-07-28T10:38:34.652Z,62.30
2022-07-28T10:43:42.819Z,58.20
2022-07-28T10:48:48.390Z,55.10
2022-07-28T10:54:24.815Z,53.10
2022-07-28T10:59:58.226Z,51.90
2022-07-28T11:05:02.056Z,50.20
2022-07-28T11:10:18.103Z,50.90
2022-07-28T11:15:28.095Z,45.70
2022-07-28T11:21:00.242Z,48.50
2022-07-28T11:26:20.947Z,47.40
2022-07-28T11:31:48.982Z,47.80
2022-07-28T11:37:03.051Z,45.70
2022-07-28T11:42:27.000Z,44.80
2022-07-28T11:47:31.864Z,42.70
2022-07-28T11:52:33.897Z,43.90
2022-07-28T11:57:44.089Z,40.40
2022-07-28T12:02:46.270Z,42.50
2022-07-28T12:07:53.095Z,45.80
2022-07-28T12:13:00.240Z,42.60
2022-07-28T12:18:02.832Z,41.60
2022-07-28T12:23:08.006Z,42.50
2022-07-28T12:28:22.573Z,41.40
2022-07-28T12:33:29.700Z,38.60
2022-07-28T12:38:32.641Z,40.10
2022-07-28T12:43:34.669Z,38.90
2022-07-28T12:48:41.478Z,40.10
2022-07-28T12:53:52.692Z,42.30
2022-07-28T12:59:13.428Z,39.20
2022-07-28T13:04:18.353Z,38.70
2022-07-28T13:09:33.010Z,39.00
2022-07-28T13:14:46.695Z,38.20
2022-07-28T13:19:49.606Z,37.30
2022-07-28T13:24:51.613Z,37.10
2022-07-28T13:29:53.918Z,36.00
2022-07-28T13:34:57.003Z,36.80
2022-07-28T13:40:01.739Z,37.40
2022-07-28T13:45:05.077Z,38.20
2022-07-28T13:50:09.723Z,38.30
2022-07-28T13:55:13.355Z,38.50
2022-07-28T14:00:23.033Z,37.60
2022-07-28T14:05:25.114Z,37.50
2022-07-28T14:10:35.851Z,37.80
2022-07-28T14:15:41.256Z,38.90
2022-07-28T14:20:43.361Z,38.90
2022-07-28T14:25:49.559Z,39.30
2022-07-28T14:30:53.000Z,39.80
2022-07-28T14:35:55.295Z,39.80
2022-07-28T14:40:57.666Z,40.50
2022-07-28T14:46:14.635Z,40.00
2022-07-28T14:51:18.696Z,40.60
2022-07-28T14:56:20.822Z,41.50
2022-07-28T15:01:22.841Z,41.60
2022-07-28T15:06:26.371Z,39.60
2022-07-28T15:11:28.297Z,40.10
2022-07-28T15:16:30.916Z,40.30
2022-07-28T15:21:36.317Z,39.90
2022-07-28T15:26:38.577Z,40.80
2022-07-28T15:31:42.451Z,39.30
2022-07-28T15:36:47.754Z,38.90
2022-07-28T15:41:50.862Z,39.50
2022-07-28T15:46:53.002Z,39.80
2022-07-28T15:51:57.715Z,39.80
2022-07-28T15:56:59.926Z,39.90
2022-07-28T16:02:01.877Z,40.40
2022-07-28T16:07:19.394Z,40.40
2022-07-28T16:12:25.501Z,40.60
2022-07-28T16:17:27.669Z,40.90
2022-07-28T16:22:29.523Z,41.80
2022-07-28T16:27:31.576Z,41.90
2022-07-28T16:32:33.490Z,41.40
2022-07-28T16:37:36.013Z,42.00
2022-07-28T16:42:38.071Z,41.80
2022-07-28T16:47:39.865Z,41.60
2022-07-28T16:52:41.796Z,41.60
2022-07-28T16:57:43.735Z,42.30
2022-07-28T17:02:48.405Z,42.60
2022-07-28T17:07:51.404Z,43.80
2022-07-28T17:12:53.367Z,44.60
2022-07-28T17:17:56.086Z,44.60
2022-07-28T17:22:58.841Z,45.60
2022-07-28T17:28:00.997Z,45.70
2022-07-28T17:33:08.669Z,46.10
2022-07-28T17:38:12.676Z,46.50
2022-07-28T17:43:16.140Z,47.40
2022-07-28T17:48:18.714Z,47.70
2022-07-28T17:53:20.715Z,48.00
2022-07-28T17:58:29.012Z,48.10
2022-07-28T18:03:31.685Z,48.70
2022-07-28T18:08:53.544Z,48.50
2022-07-28T18:14:04.093Z,49.40
2022-07-28T18:19:07.136Z,49.70
2022-07-28T18:24:09.277Z,50.00
2022-07-28T18:29:11.129Z,50.10
2022-07-28T18:34:14.268Z,50.40
2022-07-28T18:39:16.592Z,50.00
2022-07-28T18:44:19.774Z,50.60
2022-07-28T18:49:22.405Z,52.10
2022-07-28T18:54:27.657Z,51.50
2022-07-28T18:59:30.071Z,52.80
2022-07-28T19:04:33.277Z,52.40
2022-07-28T19:09:38.819Z,52.80
2022-07-28T19:14:41.462Z,53.60
2022-07-28T19:19:43.486Z,54.50
2022-07-28T19:24:49.867Z,54.30
2022-07-28T19:29:51.964Z,55.60
2022-07-28T19:34:53.857Z,57.00
2022-07-28T19:39:55.926Z,58.80
2022-07-28T19:44:58.644Z,58.70
2022-07-28T19:50:00.730Z,58.90
2022-07-28T19:55:04.311Z,59.20
2022-07-28T20:00:08.826Z,60.30
